Date,TemperatureHighF,TemperatureAvgF,TemperatureLowF,DewpointHighF,DewpointAvgF,DewpointLowF,HumidityHigh,HumidityAvg,HumidityLow,PressureMaxIn,PressureMinIn,WindSpeedMaxMPH,WindSpeedAvgMPH,GustSpeedMaxMPH,PrecipitationSumIn
2013-2-1,68,57,48,28,23,16,34,27,16,0.00,40.00,7,3,13,0.00
2013-2-2,67,58,51,26,22,13,31,24,19,0.00,40.00,6,1,10,0.00
2013-2-3,61,56,53,31,26,22,38,32,26,0.00,40.00,13,5,24,0.00
2013-2-4,66,58,51,29,22,7,42,25,14,0.00,40.00,15,7,22,0.00
2013-2-5,67,58,49,26,19,8,28,23,16,0.00,40.00,9,3,15,0.00
2013-2-6,64,56,50,28,23,17,37,28,20,0.00,40.00,9,4,18,0.00
2013-2-7,63,55,45,24,21,16,39,27,18,0.00,40.00,12,6,22,0.00
2013-2-8,54,43,33,33,26,13,95,54,26,0.00,40.00,19,8,40,0.00
2013-2-9,45,37,32,33,27,19,96,69,38,0.00,40.00,10,4,17,0.03
2013-2-10,45,40,35,23,18,11,54,43,25,0.00,40.00,8,3,17,0.01
2013-2-11,45,38,32,21,13,7,55,38,21,0.00,40.00,21,11,35,0.00
2013-2-12,52,43,33,10,6,-1,32,22,14,0.00,40.00,15,8,28,0.00
2013-2-13,58,48,39,21,18,11,39,30,24,0.00,40.00,21,9,29,0.00
2013-2-14,61,54,49,23,20,17,31,27,22,0.00,40.00,18,10,28,0.00
2013-2-15,63,55,48,17,12,5,28,19,12,0.00,40.00,18,12,27,0.00
2013-2-16,71,61,50,16,8,0,17,13,6,0.00,40.00,8,4,12,0.00
2013-2-17,64,58,48,12,7,3,18,13,10,0.00,40.00,9,6,19,0.00
2013-2-18,65,55,48,18,11,3,27,18,13,0.00,40.00,14,4,20,0.00
2013-2-19,58,50,43,28,19,9,56,30,18,0.00,40.00,14,7,31,0.00
2013-2-20,43,36,32,35,32,27,96,88,53,0.00,40.00,12,4,27,0.44
2013-2-21,45,37,32,34,30,15,93,76,40,0.00,40.00,6,2,15,0.01
2013-2-22,51,44,35,19,16,14,49,32,25,0.00,40.00,14,7,25,0.00
2013-2-23,57,47,39,22,16,2,39,29,21,0.00,40.00,17,7,34,0.00
2013-2-24,47,39,33,12,7,2,37,26,18,0.00,40.00,17,13,38,0.00
2013-2-25,55,44,34,10,7,-3,34,23,9,0.00,40.00,20,5,31,0.00
2013-2-26,51,45,39,10,7,2,27,21,13,0.00,40.00,15,8,30,0.00
2013-2-27,52,46,36,6,1,-4,23,15,12,0.00,40.00,14,11,26,0.00
2013-2-28,61,54,43,9,4,-2,17,13,10,0.00,40.00,16,9,28,0.00